Time;durP1;ratioP1;P1;durP2;ratioP2;P2;SDS_P1;SDS_P2;PMS_P1;PMS_P2;Temp;Humidity;BMP_temperature;BMP_pressure;BME280_temperature;BME280_humidity;BME280_pressure;Samples;Min_cycle;Max_cycle;Signal;HPM_P1;HPM_P2
2021/09/01 00:00:24;;;;;;;25.58;12.63;;;22.70;51.60;;;-147.20;100.00;58430.41;5094680;28;20040;-18
2021/09/01 00:02:50;;;;;;;25.38;13.45;;;22.70;51.60;;;-147.20;100.00;58430.41;5094757;28;20168;-18
2021/09/01 00:05:16;;;;;;;25.83;12.52;;;22.70;51.60;;;-147.20;100.00;58430.41;5094671;28;20044;-18
2021/09/01 00:07:42;;;;;;;22.65;12.18;;;22.70;51.60;;;-147.20;100.00;58430.41;5092645;28;20980;-17
2021/09/01 00:10:09;;;;;;;21.85;11.45;;;22.70;51.70;;;-147.20;100.00;58430.41;5094873;28;20048;-17
2021/09/01 00:12:35;;;;;;;23.10;12.40;;;22.70;51.70;;;-147.20;100.00;58430.41;5093164;28;20044;-17
2021/09/01 00:15:01;;;;;;;22.58;11.55;;;22.70;51.60;;;-147.20;100.00;58430.41;5094429;28;20056;-17
2021/09/01 00:17:27;;;;;;;23.33;11.85;;;22.70;51.60;;;-147.20;100.00;58430.41;5094358;28;20382;-17
2021/09/01 00:19:53;;;;;;;24.13;12.40;;;22.70;51.60;;;-147.20;100.00;58430.41;5094338;28;20485;-17
2021/09/01 00:22:18;;;;;;;20.80;12.15;;;22.70;51.70;;;-147.20;100.00;58430.41;5094345;28;20124;-17
2021/09/01 00:24:44;;;;;;;21.80;12.32;;;22.70;51.70;;;-147.20;100.00;58430.41;5076652;28;20051;-17
2021/09/01 00:27:10;;;;;;;22.25;12.32;;;22.70;51.70;;;-147.20;100.00;58430.41;5094574;28;20131;-17
2021/09/01 00:29:36;;;;;;;19.65;11.10;;;22.70;51.70;;;-147.20;100.00;58430.41;5093031;28;20074;-18
2021/09/01 00:32:05;;;;;;;27.70;12.05;;;22.70;51.70;;;-147.20;100.00;58430.41;5094266;28;20048;-17
2021/09/01 00:34:31;;;;;;;19.08;10.20;;;22.70;51.70;;;-147.20;100.00;58430.41;5094320;28;20076;-17
2021/09/01 00:36:57;;;;;;;20.98;10.90;;;22.60;51.70;;;-147.20;100.00;58430.41;5094249;28;20039;-18
2021/09/01 00:39:23;;;;;;;19.15;11.25;;;22.70;51.60;;;-147.20;100.00;58430.41;5076247;28;20512;-17
2021/09/01 00:41:48;;;;;;;19.42;11.52;;;22.70;51.70;;;-147.20;100.00;58430.41;5094303;28;20055;-17
2021/09/01 00:44:25;;;;;;;22.75;11.25;;;22.70;51.70;;;-147.20;100.00;58430.41;5094067;28;20048;-17
2021/09/01 00:46:55;;;;;;;19.10;10.70;;;22.70;51.70;;;-147.20;100.00;58430.41;5094253;28;20058;-17
2021/09/01 00:49:21;;;;;;;21.15;11.25;;;22.70;51.70;;;-147.20;100.00;58430.41;5093973;28;20071;-17
2021/09/01 00:51:50;;;;;;;19.73;10.32;;;22.70;51.70;;;-147.20;100.00;58430.41;5093914;28;20052;-17
2021/09/01 00:54:24;;;;;;;20.10;10.90;;;22.70;51.70;;;-147.20;100.00;58430.41;5093170;28;20481;-17
2021/09/01 00:56:53;;;;;;;20.58;11.25;;;22.70;51.70;;;-147.20;100.00;58430.41;5093765;28;20042;-17
2021/09/01 00:59:23;;;;;;;17.70;10.40;;;22.70;51.80;;;-147.20;100.00;58430.41;5092773;28;20052;-17
2021/09/01 01:01:49;;;;;;;20.38;11.02;;;22.70;51.70;;;-147.20;100.00;58430.41;5092372;28;20044;-17
2021/09/01 01:04:17;;;;;;;17.70;10.27;;;22.60;51.70;;;-147.20;100.00;58430.41;5094251;28;20101;-17
2021/09/01 01:06:43;;;;;;;22.38;10.85;;;22.60;51.70;;;-147.20;100.00;58430.41;5093968;28;20047;-17
2021/09/01 01:09:12;;;;;;;20.10;10.93;;;22.60;51.80;;;-147.20;100.00;58430.41;5093913;28;20048;-18
2021/09/01 01:11:59;;;;;;;18.83;10.40;;;22.70;51.80;;;-147.20;100.00;58430.41;5093930;28;20473;-17
2021/09/01 01:14:26;;;;;;;18.38;9.85;;;22.60;51.80;;;-147.20;100.00;58430.41;5093893;28;20126;-17
2021/09/01 01:16:52;;;;;;;18.90;10.57;;;22.60;51.80;;;-147.20;100.00;58430.41;5074816;28;20056;-17
2021/09/01 01:19:20;;;;;;;19.17;10.52;;;22.60;51.80;;;-147.20;100.00;58430.41;5093294;28;20060;-17
2021/09/01 01:21:46;;;;;;;16.40;9.73;;;22.60;51.80;;;-147.20;100.00;58430.41;5093540;28;20050;-17
2021/09/01 01:24:12;;;;;;;16.92;9.73;;;22.70;51.80;;;-147.20;100.00;58430.41;5093399;28;20040;-18
2021/09/01 01:26:38;;;;;;;19.50;9.38;;;22.60;51.80;;;-147.20;100.00;58430.41;5093331;28;20498;-17
2021/09/01 01:29:08;;;;;;;17.50;9.65;;;22.60;51.80;;;-147.20;100.00;58430.41;5092248;28;20078;-17
2021/09/01 01:31:38;;;;;;;17.63;9.38;;;22.60;51.80;;;-147.20;100.00;58430.41;5091968;28;20505;-17
2021/09/01 01:34:11;;;;;;;20.55;9.45;;;22.60;51.80;;;-147.20;100.00;58430.41;5093291;28;20051;-17
2021/09/01 01:36:36;;;;;;;17.38;9.65;;;22.70;51.90;;;-147.20;100.00;58430.41;5092545;28;20051;-17
2021/09/01 01:39:02;;;;;;;16.13;9.27;;;22.60;51.80;;;-147.20;100.00;58430.41;5093198;28;20078;-17
2021/09/01 01:41:28;;;;;;;18.67;9.57;;;22.60;51.90;;;-147.20;100.00;58430.41;5072771;28;20508;-17
2021/09/01 01:43:53;;;;;;;16.02;9.68;;;22.60;51.80;;;-147.20;100.00;58430.41;5093160;28;20056;-17
2021/09/01 01:46:19;;;;;;;18.52;9.23;;;22.60;51.80;;;-147.20;100.00;58430.41;5091788;28;20097;-17
2021/09/01 01:48:45;;;;;;;14.70;9.80;;;22.60;51.80;;;-147.20;100.00;58430.41;5093033;28;20105;-17
2021/09/01 01:51:11;;;;;;;16.35;7.85;;;22.60;51.80;;;-147.20;100.00;58430.41;5092904;28;20047;-17
2021/09/01 01:53:37;;;;;;;15.15;9.00;;;22.60;51.80;;;-147.20;100.00;58430.41;5093006;28;20084;-17
2021/09/01 01:56:03;;;;;;;14.70;8.80;;;22.70;51.90;;;-147.20;100.00;58430.41;5092987;28;20489;-17
2021/09/01 01:58:28;;;;;;;15.05;8.77;;;22.60;51.80;;;-147.20;100.00;58430.41;5092870;28;20424;-17
2021/09/01 02:00:54;;;;;;;16.88;9.07;;;22.60;51.90;;;-147.20;100.00;58430.41;5092822;28;20044;-17
2021/09/01 02:03:20;;;;;;;13.98;8.85;;;22.60;51.90;;;-147.20;100.00;58430.41;5092898;28;20052;-17
2021/09/01 02:05:45;;;;;;;15.45;8.73;;;22.60;51.80;;;-147.20;100.00;58430.41;5092760;28;20494;-17
2021/09/01 02:08:11;;;;;;;16.55;9.00;;;22.60;51.90;;;-147.20;100.00;58430.41;5092786;28;20074;-17
2021/09/01 02:10:37;;;;;;;15.35;8.55;;;22.60;51.90;;;-147.20;100.00;58430.41;5092913;28;20044;-17
2021/09/01 02:13:03;;;;;;;15.45;8.35;;;22.60;51.90;;;-147.20;100.00;58430.41;5074883;28;20106;-17
2021/09/01 02:15:30;;;;;;;17.63;8.73;;;22.60;51.90;;;-147.20;100.00;58430.41;5092942;28;20143;-17
2021/09/01 02:17:56;;;;;;;16.02;8.80;;;22.60;51.90;;;-147.20;100.00;58430.41;5092704;28;20090;-17
2021/09/01 02:20:22;;;;;;;15.00;8.48;;;22.60;51.90;;;-147.20;100.00;58430.41;5092521;28;20185;-17
2021/09/01 02:22:49;;;;;;;16.35;8.18;;;22.60;51.90;;;-147.20;100.00;58430.41;5092520;28;20075;-17
2021/09/01 02:25:15;;;;;;;12.75;8.05;;;22.60;51.90;;;-147.20;100.00;58430.41;5092911;28;20044;-17
2021/09/01 02:27:41;;;;;;;14.57;8.90;;;22.70;51.90;;;-147.20;100.00;58430.41;5092256;28;20048;-17
2021/09/01 02:30:09;;;;;;;13.75;7.90;;;22.60;51.90;;;-147.20;100.00;58430.41;5092536;28;20048;-17
2021/09/01 02:32:35;;;;;;;15.13;8.55;;;22.60;51.90;;;-147.20;100.00;58430.41;5091256;28;20044;-17
2021/09/01 02:35:01;;;;;;;15.40;8.50;;;22.60;51.90;;;-147.20;100.00;58430.41;5092254;28;20060;-17
2021/09/01 02:37:27;;;;;;;13.65;8.02;;;22.60;51.90;;;-147.20;100.00;58430.41;5092710;28;20386;-17
2021/09/01 02:39:52;;;;;;;16.40;7.85;;;22.60;51.90;;;-147.20;100.00;58430.41;5092510;28;20051;-17
2021/09/01 02:42:18;;;;;;;15.05;8.10;;;22.60;51.90;;;-147.20;100.00;58430.41;5092581;28;20394;-18
2021/09/01 02:44:44;;;;;;;13.60;7.88;;;22.60;51.90;;;-147.20;100.00;58430.41;5092249;28;20475;-17
2021/09/01 02:47:10;;;;;;;13.75;7.90;;;22.60;51.90;;;-147.20;100.00;58430.41;5092287;28;20046;-17
2021/09/01 02:49:35;;;;;;;13.48;7.63;;;22.60;51.90;;;-147.20;100.00;58430.41;5092081;28;20052;-17
2021/09/01 02:52:02;;;;;;;11.50;7.18;;;22.60;52.00;;;-147.20;100.00;58430.41;5092566;28;20367;-17
2021/09/01 02:54:27;;;;;;;12.73;7.53;;;22.60;51.90;;;-147.20;100.00;58430.41;5074136;28;20078;-17
2021/09/01 02:56:53;;;;;;;12.45;7.15;;;22.60;52.00;;;-147.20;100.00;58430.41;5092088;28;20040;-17
2021/09/01 02:59:19;;;;;;;10.68;6.93;;;22.60;51.90;;;-147.20;100.00;58430.41;5091964;28;20048;-17
2021/09/01 03:01:45;;;;;;;13.52;8.57;;;22.60;52.00;;;-147.20;100.00;58430.41;5092158;28;20058;-17
2021/09/01 03:04:10;;;;;;;12.88;7.45;;;22.60;52.00;;;-147.20;100.00;58430.41;5074301;28;20127;-17
2021/09/01 03:06:36;;;;;;;13.82;7.80;;;22.60;51.90;;;-147.20;100.00;58430.41;5091972;28;20459;-17
2021/09/01 03:09:02;;;;;;;11.85;6.93;;;22.60;52.00;;;-147.20;100.00;58430.41;5091937;28;20044;-17
2021/09/01 03:11:28;;;;;;;11.05;7.57;;;22.60;51.90;;;-147.20;100.00;58430.41;5091972;28;20048;-17
2021/09/01 03:13:54;;;;;;;11.90;7.57;;;22.60;52.00;;;-147.20;100.00;58430.41;5091899;28;20048;-17
2021/09/01 03:16:19;;;;;;;12.65;7.07;;;22.60;52.00;;;-147.20;100.00;58430.41;5092406;28;20054;-17
2021/09/01 03:18:45;;;;;;;12.07;7.40;;;22.60;51.90;;;-147.20;100.00;58430.41;5091777;28;20044;-17
2021/09/01 03:21:11;;;;;;;9.95;6.53;;;22.60;52.00;;;-147.20;100.00;58430.41;5091802;28;20044;-17
2021/09/01 03:23:37;;;;;;;12.27;6.78;;;22.60;52.00;;;-147.20;100.00;58430.41;5095103;28;20919;-17
2021/09/01 03:26:04;;;;;;;12.35;7.47;;;22.60;52.00;;;-147.20;100.00;58430.41;5095524;28;20390;-17
2021/09/01 03:28:30;;;;;;;15.25;7.00;;;22.60;52.00;;;-147.20;100.00;58430.41;5095218;28;20074;-17
2021/09/01 03:30:56;;;;;;;14.00;7.43;;;22.60;52.60;;;-147.20;100.00;58430.41;5095214;28;20086;-17
2021/09/01 03:33:21;;;;;;;10.73;6.82;;;22.50;52.00;;;-147.20;100.00;58430.41;5095466;28;20165;-18
2021/09/01 03:35:47;;;;;;;11.07;6.20;;;22.50;52.00;;;-147.20;100.00;58430.41;5095180;28;20048;-17
2021/09/01 03:38:15;;;;;;;9.65;6.15;;;22.50;52.00;;;-147.20;100.00;58430.41;5077067;28;20055;-17
2021/09/01 03:40:41;;;;;;;8.98;6.20;;;22.60;52.00;;;-147.20;100.00;58430.41;5076385;28;20040;-17
2021/09/01 03:43:06;;;;;;;9.70;6.20;;;22.50;52.10;;;-147.20;100.00;58430.41;5093999;28;20044;-17
2021/09/01 03:45:32;;;;;;;11.38;6.22;;;22.60;52.00;;;-147.20;100.00;58430.41;5094947;28;20130;-17
2021/09/01 03:47:58;;;;;;;12.43;6.85;;;22.60;52.10;;;-147.20;100.00;58430.41;5094783;28;20055;-17
2021/09/01 03:50:24;;;;;;;10.23;6.20;;;22.60;52.00;;;-147.20;100.00;58430.41;5095190;28;20048;-18
2021/09/01 03:52:50;;;;;;;12.10;7.00;;;22.50;52.00;;;-147.20;100.00;58430.41;5094842;28;20160;-17
2021/09/01 03:55:16;;;;;;;11.98;7.40;;;22.50;52.00;;;-147.20;100.00;58430.41;5094819;28;20052;-17
2021/09/01 03:57:42;;;;;;;10.52;6.38;;;22.50;52.00;;;-147.20;100.00;58430.41;5094750;28;20135;-17
2021/09/01 04:00:09;;;;;;;13.20;6.90;;;22.60;52.00;;;-147.20;100.00;58430.41;5094698;28;20109;-17
2021/09/01 04:02:38;;;;;;;10.07;6.22;;;22.50;52.00;;;-147.20;100.00;58430.41;5094773;28;20056;-17
2021/09/01 04:05:04;;;;;;;11.48;6.10;;;22.60;52.00;;;-147.20;100.00;58430.41;5094636;28;20513;-17
2021/09/01 04:07:30;;;;;;;9.45;6.07;;;22.60;52.10;;;-147.20;100.00;58430.41;5094572;28;20059;-17
2021/09/01 04:09:56;;;;;;;10.45;6.28;;;22.50;52.10;;;-147.20;100.00;58430.41;5095030;28;20052;-17
2021/09/01 04:12:21;;;;;;;10.68;6.22;;;22.50;52.00;;;-147.20;100.00;58430.41;5094686;28;20065;-17
2021/09/01 04:14:47;;;;;;;9.32;6.32;;;22.50;52.10;;;-147.20;100.00;58430.41;5094521;28;20040;-17
2021/09/01 04:17:13;;;;;;;12.30;7.15;;;22.50;52.10;;;-147.20;100.00;58430.41;5094265;28;20056;-17
2021/09/01 04:19:39;;;;;;;8.98;5.75;;;22.60;52.10;;;-147.20;100.00;58430.41;5094448;28;20127;-17
2021/09/01 04:22:05;;;;;;;7.65;5.40;;;22.50;52.10;;;-147.20;100.00;58430.41;5094404;28;20404;-17
2021/09/01 04:24:31;;;;;;;8.90;6.03;;;22.50;52.10;;;-147.20;100.00;58430.41;5094361;28;20132;-17
2021/09/01 04:26:57;;;;;;;8.20;5.18;;;22.50;52.10;;;-147.20;100.00;58430.41;5094139;28;20040;-17
2021/09/01 04:29:22;;;;;;;10.80;5.80;;;22.60;52.10;;;-147.20;100.00;58430.41;5094165;28;20055;-17
2021/09/01 04:31:48;;;;;;;11.13;6.18;;;22.50;52.10;;;-147.20;100.00;58430.41;5094555;28;20084;-17
2021/09/01 04:34:14;;;;;;;8.32;5.35;;;22.60;52.70;;;-147.20;100.00;58430.41;5093012;28;20413;-17
2021/09/01 04:36:40;;;;;;;12.55;6.95;;;22.50;52.00;;;-147.20;100.00;58430.41;5094256;28;20048;-17
2021/09/01 04:39:05;;;;;;;9.77;5.90;;;22.50;52.10;;;-147.20;100.00;58430.41;5094250;28;20051;-17
2021/09/01 04:41:31;;;;;;;8.88;5.10;;;22.50;52.20;;;-147.20;100.00;58430.41;5094053;28;20052;-17
2021/09/01 04:43:57;;;;;;;10.27;5.65;;;22.60;52.20;;;-147.20;100.00;58430.41;5094331;28;20043;-17
2021/09/01 04:46:23;;;;;;;8.98;5.85;;;22.50;52.10;;;-147.20;100.00;58430.41;5094057;28;20040;-17
2021/09/01 04:48:48;;;;;;;9.13;5.57;;;22.60;52.20;;;-147.20;100.00;58430.41;5093964;28;20078;-18
2021/09/01 04:51:14;;;;;;;8.25;5.03;;;22.50;52.10;;;-147.20;100.00;58430.41;5093845;28;20056;-17
2021/09/01 04:53:40;;;;;;;8.90;5.47;;;22.50;52.10;;;-147.20;100.00;58430.41;5094001;28;20573;-17
2021/09/01 04:56:06;;;;;;;8.48;5.70;;;22.50;52.10;;;-147.20;100.00;58430.41;5094153;28;20127;-17
2021/09/01 04:58:31;;;;;;;10.23;6.30;;;22.50;52.10;;;-147.20;100.00;58430.41;5093768;28;20084;-17
2021/09/01 05:00:57;;;;;;;9.43;6.03;;;22.50;52.10;;;-147.20;100.00;58430.41;5093702;28;20093;-17
2021/09/01 05:03:23;;;;;;;9.50;5.82;;;22.50;52.10;;;-147.20;100.00;58430.41;5093738;28;20048;-17
2021/09/01 05:05:48;;;;;;;8.57;5.22;;;22.50;52.10;;;-147.20;100.00;58430.41;5093643;28;20070;-17
2021/09/01 05:08:14;;;;;;;7.20;5.07;;;22.50;52.10;;;-147.20;100.00;58430.41;5093772;28;20050;-17
2021/09/01 05:10:40;;;;;;;10.93;5.13;;;22.60;52.10;;;-147.20;100.00;58430.41;5093880;28;20054;-17
2021/09/01 05:13:06;;;;;;;9.13;5.00;;;22.50;52.10;;;-147.20;100.00;58430.41;5093620;28;20060;-17
2021/09/01 05:15:31;;;;;;;9.52;5.32;;;22.50;52.10;;;-147.20;100.00;58430.41;5093906;28;20044;-17
2021/09/01 05:18:00;;;;;;;9.38;5.60;;;22.50;52.10;;;-147.20;100.00;58430.41;5093408;28;20044;-17
2021/09/01 05:20:25;;;;;;;8.80;5.22;;;22.50;52.10;;;-147.20;100.00;58430.41;5093369;28;20055;-17
2021/09/01 05:22:59;;;;;;;7.50;5.28;;;22.60;52.10;;;-147.20;100.00;58430.41;5093408;28;20048;-17
2021/09/01 05:25:29;;;;;;;8.95;4.90;;;22.50;52.10;;;-147.20;100.00;58430.41;5092358;28;20040;-17
2021/09/01 05:27:57;;;;;;;7.23;4.87;;;22.60;52.10;;;-147.20;100.00;58430.41;5093417;28;20079;-17
2021/09/01 05:30:22;;;;;;;10.68;5.63;;;22.60;52.10;;;-147.20;100.00;58430.41;5093349;28;20059;-17
2021/09/01 05:32:51;;;;;;;7.28;4.80;;;22.60;52.10;;;-147.20;100.00;58430.41;5093245;28;20044;-17
2021/09/01 05:35:17;;;;;;;7.35;4.97;;;22.60;52.10;;;-147.20;100.00;58430.41;5092287;28;20044;-17
2021/09/01 05:37:45;;;;;;;8.93;4.65;;;22.60;52.10;;;-147.20;100.00;58430.41;5072998;28;20115;-18
2021/09/01 05:40:13;;;;;;;8.40;5.00;;;22.60;52.00;;;-147.20;100.00;58430.41;5093209;28;20044;-17
2021/09/01 05:42:42;;;;;;;8.15;5.35;;;22.60;52.00;;;-147.20;100.00;58430.41;5074383;28;20052;-18
2021/09/01 05:45:09;;;;;;;7.63;5.28;;;22.60;52.00;;;-147.20;100.00;58430.41;5092793;28;20135;-17
2021/09/01 05:47:35;;;;;;;9.18;5.07;;;22.60;51.90;;;-147.20;100.00;58430.41;5093261;28;20476;-17
2021/09/01 05:50:01;;;;;;;8.23;4.68;;;22.60;51.90;;;-147.20;100.00;58430.41;5073042;28;20417;-17
2021/09/01 05:52:27;;;;;;;7.45;4.35;;;22.70;52.10;;;-147.20;100.00;58430.41;5092912;28;20044;-17
2021/09/01 05:54:56;;;;;;;7.55;4.78;;;22.60;52.00;;;-147.20;100.00;58430.41;5092630;28;20052;-17
2021/09/01 05:57:37;;;;;;;9.38;5.18;;;22.60;51.90;;;-147.20;100.00;58430.41;5092799;28;20052;-17
2021/09/01 06:00:15;;;;;;;7.50;4.90;;;22.60;52.00;;;-147.20;100.00;58430.41;5092431;28;20076;-18
2021/09/01 06:03:00;;;;;;;6.95;4.82;;;22.60;51.90;;;-147.20;100.00;58430.41;5092848;28;20040;-17
2021/09/01 06:05:28;;;;;;;8.20;4.65;;;22.60;51.90;;;-147.20;100.00;58430.41;5074632;28;20052;-17
2021/09/01 06:07:58;;;;;;;9.80;5.03;;;22.60;51.80;;;-147.20;100.00;58430.41;5092517;28;20048;-17
2021/09/01 06:10:31;;;;;;;7.80;4.80;;;22.60;51.80;;;-147.20;100.00;58430.41;5074381;28;20512;-17
2021/09/01 06:13:05;;;;;;;7.68;4.35;;;22.60;51.90;;;-147.20;100.00;58430.41;5073279;28;20136;-17
2021/09/01 06:15:32;;;;;;;7.57;4.63;;;22.70;51.90;;;-147.20;100.00;58430.41;5092779;28;20615;-17
2021/09/01 06:17:59;;;;;;;7.45;4.93;;;22.60;51.80;;;-147.20;100.00;58430.41;5092316;28;20130;-17
2021/09/01 06:20:29;;;;;;;6.13;4.50;;;22.70;51.80;;;-147.20;100.00;58430.41;5092465;28;20048;-17
2021/09/01 06:22:56;;;;;;;9.52;4.47;;;22.70;51.70;;;-147.20;100.00;58430.41;5092600;28;20048;-17
2021/09/01 06:25:22;;;;;;;7.55;4.88;;;22.70;51.80;;;-147.20;100.00;58430.41;5092471;28;20044;-17
2021/09/01 06:27:48;;;;;;;7.72;5.05;;;22.70;51.70;;;-147.20;100.00;58430.41;5092325;28;20056;-17
2021/09/01 06:30:14;;;;;;;8.07;5.13;;;22.80;51.70;;;-147.20;100.00;58430.41;5092429;28;20055;-17
2021/09/01 06:32:43;;;;;;;7.50;4.70;;;22.70;51.70;;;-147.20;100.00;58430.41;5072630;28;20049;-18
2021/09/01 06:35:09;;;;;;;7.10;4.55;;;22.70;51.70;;;-147.20;100.00;58430.41;5072722;28;20048;-17
2021/09/01 06:37:37;;;;;;;9.13;5.40;;;22.80;51.70;;;-147.20;100.00;58430.41;5092111;28;20064;-17
2021/09/01 06:40:04;;;;;;;5.60;4.63;;;22.80;51.70;;;-147.20;100.00;58430.41;5091840;28;20109;-17
2021/09/01 06:42:30;;;;;;;7.63;4.57;;;22.80;51.60;;;-147.20;100.00;58430.41;5092357;28;20055;-17
2021/09/01 06:44:55;;;;;;;8.35;4.80;;;22.80;51.60;;;-147.20;100.00;58430.41;5091958;28;20052;-17
2021/09/01 06:47:21;;;;;;;11.52;5.00;;;22.80;51.50;;;-147.20;100.00;58430.41;5092268;28;20056;-17
2021/09/01 06:49:47;;;;;;;7.55;4.53;;;22.80;51.40;;;-147.20;100.00;58430.41;5091807;28;20056;-17
2021/09/01 06:52:13;;;;;;;9.82;4.88;;;22.90;51.40;;;-147.20;100.00;58430.41;5092121;28;20190;-17
2021/09/01 06:54:39;;;;;;;8.95;4.70;;;22.90;51.30;;;-147.20;100.00;58430.41;5092149;28;20087;-18
2021/09/01 06:57:05;;;;;;;6.60;4.22;;;22.90;51.30;;;-147.20;100.00;58430.41;5092742;28;20554;-17
2021/09/01 06:59:31;;;;;;;6.75;4.47;;;22.90;51.20;;;-147.20;100.00;58430.41;5095594;28;20618;-17
2021/09/01 07:01:56;;;;;;;12.65;5.40;;;23.00;51.20;;;-147.20;100.00;58430.41;5095571;28;20053;-17
2021/09/01 07:04:22;;;;;;;10.80;4.80;;;23.00;51.00;;;-147.20;100.00;58430.41;5096031;28;20098;-17
2021/09/01 07:06:48;;;;;;;10.57;5.30;;;23.00;51.00;;;-147.20;100.00;58430.41;5095459;28;20048;-17
2021/09/01 07:09:14;;;;;;;9.68;5.03;;;23.10;51.00;;;-147.20;100.00;58430.41;5095667;28;20048;-17
2021/09/01 07:11:39;;;;;;;10.75;4.75;;;23.10;50.90;;;-147.20;100.00;58430.41;5095305;28;20489;-17
2021/09/01 07:14:08;;;;;;;9.13;4.75;;;23.20;50.70;;;-147.20;100.00;58430.41;5096058;28;20052;-17
2021/09/01 07:16:34;;;;;;;11.05;4.95;;;23.30;50.50;;;-147.20;100.00;58430.41;5095471;28;20403;-17
2021/09/01 07:19:00;;;;;;;11.93;5.90;;;23.40;50.40;;;-147.20;100.00;58430.41;5095672;28;20517;-17
2021/09/01 07:21:26;;;;;;;11.55;5.28;;;23.40;50.90;;;-147.20;100.00;58430.41;5095165;28;20048;-17
2021/09/01 07:23:54;;;;;;;13.10;5.45;;;23.40;50.10;;;-147.20;100.00;58430.41;5095144;28;20047;-17
2021/09/01 07:26:20;;;;;;;22.52;5.95;;;23.50;50.10;;;-147.20;100.00;58430.41;5095332;28;20048;-17
2021/09/01 07:28:45;;;;;;;12.18;5.47;;;23.60;49.80;;;-147.20;100.00;58430.41;5095227;28;20044;-17
2021/09/01 07:31:11;;;;;;;16.60;5.75;;;23.70;49.70;;;-147.20;100.00;58430.41;5095234;28;20394;-17
2021/09/01 07:33:37;;;;;;;15.82;5.93;;;23.70;49.60;;;-147.20;100.00;58430.41;5095109;28;20047;-18
2021/09/01 07:36:03;;;;;;;14.00;5.53;;;23.80;49.50;;;-147.20;100.00;58430.41;5095074;28;20044;-17
2021/09/01 07:38:29;;;;;;;17.17;6.32;;;23.80;49.60;;;-147.20;100.00;58430.41;5094945;28;20541;-17
2021/09/01 07:40:55;;;;;;;12.60;5.38;;;23.90;49.50;;;-147.20;100.00;58430.41;5094926;28;20080;-18
2021/09/01 07:43:21;;;;;;;13.18;4.82;;;23.90;49.20;;;-147.20;100.00;58430.41;5095345;28;20044;-17
2021/09/01 07:45:47;;;;;;;20.85;6.55;;;23.90;49.10;;;-147.20;100.00;58430.41;5094932;28;20448;-17
2021/09/01 07:48:14;;;;;;;17.48;7.10;;;24.00;49.00;;;-147.20;100.00;58430.41;5094845;28;20052;-18
2021/09/01 07:50:43;;;;;;;16.90;6.05;;;24.10;48.90;;;-147.20;100.00;58430.41;5094924;28;20382;-17
2021/09/01 07:53:09;;;;;;;17.45;6.88;;;24.10;48.70;;;-147.20;100.00;58430.41;5094875;28;20392;-18
2021/09/01 07:55:36;;;;;;;24.45;7.07;;;24.20;48.70;;;-147.20;100.00;58430.41;5095105;28;20047;-17
2021/09/01 07:58:02;;;;;;;18.58;5.90;;;24.20;48.50;;;-147.20;100.00;58430.41;5095031;28;20065;-17
2021/09/01 08:00:28;;;;;;;27.10;7.05;;;24.30;48.50;;;-147.20;100.00;58430.41;5075682;28;20057;-17
2021/09/01 08:02:54;;;;;;;22.77;6.97;;;24.30;48.50;;;-147.20;100.00;58430.41;5093634;28;20040;-17
2021/09/01 08:05:21;;;;;;;20.17;7.50;;;24.30;48.50;;;-147.20;100.00;58430.41;5094619;28;20052;-17
2021/09/01 08:07:48;;;;;;;20.83;6.70;;;24.20;48.50;;;-147.20;100.00;58430.41;5094477;28;20148;-17
2021/09/01 08:10:14;;;;;;;20.92;6.82;;;24.20;48.40;;;-147.20;100.00;58430.41;5094405;28;20113;-17
2021/09/01 08:12:40;;;;;;;24.63;7.07;;;24.20;48.50;;;-147.20;100.00;58430.41;5094824;28;20083;-17
2021/09/01 08:15:09;;;;;;;30.50;8.27;;;24.20;48.50;;;-147.20;100.00;58430.41;5094213;28;20186;-17
2021/09/01 08:17:35;;;;;;;18.80;7.25;;;24.20;48.50;;;-147.20;100.00;58430.41;5094390;28;20109;-18
2021/09/01 08:20:00;;;;;;;23.23;8.10;;;24.20;48.60;;;-147.20;100.00;58430.41;5074675;28;20045;-17
2021/09/01 08:22:26;;;;;;;26.13;7.15;;;24.20;48.50;;;-147.20;100.00;58430.41;5092230;28;20040;-17
2021/09/01 08:24:52;;;;;;;31.65;7.97;;;24.20;48.60;;;-147.20;100.00;58430.41;5093863;28;20055;-17
2021/09/01 08:27:18;;;;;;;21.90;7.78;;;24.10;49.20;;;-147.20;100.00;58430.41;5094205;28;20040;-17
2021/09/01 08:29:43;;;;;;;24.02;7.88;;;24.10;48.70;;;-147.20;100.00;58430.41;5094409;28;20108;-17
2021/09/01 08:32:10;;;;;;;24.15;7.43;;;24.10;48.90;;;-147.20;100.00;58430.41;5094428;28;20104;-17
2021/09/01 08:34:36;;;;;;;25.58;8.35;;;24.10;48.80;;;-147.20;100.00;58430.41;5094120;28;20040;-17
2021/09/01 08:37:03;;;;;;;29.17;8.50;;;24.10;49.00;;;-147.20;100.00;58430.41;5094163;28;20048;-18
2021/09/01 08:39:29;;;;;;;30.17;8.02;;;24.10;49.00;;;-147.20;100.00;58430.41;5076226;28;20389;-17
2021/09/01 08:41:55;;;;;;;27.00;8.32;;;24.00;49.00;;;-147.20;100.00;58430.41;5094294;28;20108;-17
2021/09/01 08:44:21;;;;;;;29.67;7.18;;;24.00;49.10;;;-147.20;100.00;58430.41;5094377;28;20130;-17
2021/09/01 08:46:50;;;;;;;29.05;9.35;;;23.90;49.10;;;-147.20;100.00;58430.41;5094088;28;20085;-17
2021/09/01 08:49:20;;;;;;;25.55;8.50;;;23.90;49.20;;;-147.20;100.00;58430.41;5093909;28;20081;-17
2021/09/01 08:51:50;;;;;;;32.00;8.38;;;23.90;49.20;;;-147.20;100.00;58430.41;5094098;28;20127;-17
2021/09/01 08:54:16;;;;;;;30.80;8.48;;;23.90;49.30;;;-147.20;100.00;58430.41;5093792;28;20044;-18
2021/09/01 08:56:43;;;;;;;29.98;8.65;;;23.90;49.40;;;-147.20;100.00;58430.41;5093754;28;20055;-17
2021/09/01 08:59:09;;;;;;;30.40;9.43;;;23.90;49.40;;;-147.20;100.00;58430.41;5075545;28;20508;-17
2021/09/01 09:01:48;;;;;;;35.20;9.75;;;23.80;49.40;;;-147.20;100.00;58430.41;5093604;28;20146;-17
2021/09/01 09:04:23;;;;;;;28.35;9.35;;;23.80;49.50;;;-147.20;100.00;58430.41;5093588;28;20064;-17
2021/09/01 09:07:05;;;;;;;27.42;8.63;;;23.80;49.60;;;-147.20;100.00;58430.41;5093594;28;20067;-17
2021/09/01 09:09:35;;;;;;;37.85;10.18;;;23.80;49.60;;;-147.20;100.00;58430.41;5093575;28;20397;-17
2021/09/01 09:12:05;;;;;;;24.65;8.80;;;23.80;49.60;;;-147.20;100.00;58430.41;5092383;28;20040;-17
2021/09/01 09:14:37;;;;;;;26.13;9.10;;;23.80;49.70;;;-147.20;100.00;58430.41;5093804;28;20051;-17
2021/09/01 09:17:17;;;;;;;23.15;8.35;;;23.70;49.70;;;-147.20;100.00;58430.41;5093559;28;20055;-17
2021/09/01 09:19:56;;;;;;;26.90;7.88;;;23.70;50.30;;;-147.20;100.00;58430.41;5092969;28;20078;-18
2021/09/01 09:22:37;;;;;;;30.20;9.68;;;23.70;49.70;;;-147.20;100.00;58430.41;5093802;28;20094;-17
2021/09/01 09:25:12;;;;;;;32.60;8.23;;;23.70;49.90;;;-147.20;100.00;58430.41;5093379;28;20067;-19
2021/09/01 09:27:57;;;;;;;30.35;8.77;;;23.70;49.90;;;-147.20;100.00;58430.41;5093132;28;20051;-17
2021/09/01 09:30:37;;;;;;;27.92;7.63;;;23.70;49.90;;;-147.20;100.00;58430.41;5093231;28;20550;-18
2021/09/01 09:33:19;;;;;;;28.83;8.43;;;23.70;49.90;;;-147.20;100.00;58430.41;5093226;28;20091;-17
2021/09/01 09:36:04;;;;;;;22.23;8.32;;;23.70;50.20;;;-147.20;100.00;58430.41;5091877;28;20082;-17
2021/09/01 09:38:45;;;;;;;27.70;8.82;;;23.70;50.30;;;-147.20;100.00;58430.41;5093379;28;20045;-17
2021/09/01 09:41:29;;;;;;;30.92;9.55;;;23.70;50.60;;;-147.20;100.00;58430.41;5093386;28;20047;-17
2021/09/01 09:44:04;;;;;;;29.35;8.50;;;23.70;50.60;;;-147.20;100.00;58430.41;5075614;28;20043;-17
2021/09/01 09:46:31;;;;;;;35.53;8.88;;;23.60;50.70;;;-147.20;100.00;58430.41;5073867;28;20052;-18
2021/09/01 09:49:06;;;;;;;25.67;9.48;;;23.60;51.40;;;-147.20;100.00;58430.41;5091501;28;20052;-18
2021/09/01 09:51:43;;;;;;;23.40;8.55;;;23.70;51.70;;;-147.20;100.00;58430.41;5092949;28;20409;-18
2021/09/01 09:54:22;;;;;;;33.00;9.60;;;23.70;51.00;;;-147.20;100.00;58430.41;5093070;28;20122;-18
2021/09/01 09:56:49;;;;;;;28.88;9.32;;;23.60;51.00;;;-147.20;100.00;58430.41;5092847;28;20474;-17